createdAt,value
2023-05-10T00:00:01.162Z,3.6165
2023-05-10T00:01:02.181Z,3.4692
2023-05-10T00:02:03.168Z,3.9284
2023-05-10T00:03:04.421Z,3.5486
2023-05-10T00:04:05.425Z,3.3927
2023-05-10T00:05:06.446Z,3.4230
2023-05-10T00:06:07.386Z,3.7711
2023-05-10T00:07:08.986Z,4.1766
2023-05-10T00:08:10.029Z,4.1896
2023-05-10T00:09:11.035Z,4.1600
2023-05-10T00:10:12.037Z,4.4750
2023-05-10T00:11:13.048Z,2.7463
2023-05-10T00:12:14.055Z,4.1132
2023-05-10T00:13:15.093Z,4.5440
2023-05-10T00:14:16.109Z,4.4984
2023-05-10T00:15:17.124Z,4.0332
2023-05-10T00:16:18.121Z,3.4614
2023-05-10T00:17:19.155Z,3.1531
2023-05-10T00:18:20.228Z,3.7706
2023-05-10T00:19:33.025Z,3.4967
2023-05-10T00:20:24.191Z,2.9920
2023-05-10T00:21:25.174Z,3.8322
2023-05-10T00:22:26.115Z,3.4415
2023-05-10T00:23:27.009Z,3.0707
2023-05-10T00:24:27.848Z,3.8905
2023-05-10T00:25:28.743Z,3.3350
2023-05-10T00:26:29.760Z,3.8994
2023-05-10T00:27:30.779Z,4.1726
2023-05-10T00:28:31.792Z,4.5659
2023-05-10T00:29:32.827Z,3.8071
2023-05-10T00:30:33.888Z,3.1636
2023-05-10T00:31:34.915Z,4.0823
2023-05-10T00:32:36.070Z,3.2976
2023-05-10T00:33:37.083Z,3.3719
2023-05-10T00:34:38.118Z,3.5938
2023-05-10T00:35:39.213Z,4.1795
2023-05-10T00:36:40.121Z,3.6685
2023-05-10T00:37:41.160Z,3.7240
2023-05-10T00:38:42.206Z,4.8281
2023-05-10T00:39:43.162Z,3.2488
2023-05-10T00:40:44.162Z,3.0969
2023-05-10T00:41:45.110Z,3.7703
2023-05-10T00:42:46.188Z,3.0846
2023-05-10T00:43:47.176Z,4.2530
2023-05-10T00:44:48.231Z,4.3408
2023-05-10T00:45:49.242Z,4.9753
2023-05-10T00:46:50.240Z,3.0461
2023-05-10T00:47:51.268Z,2.9787
2023-05-10T00:48:52.258Z,3.8147
2023-05-10T00:49:53.190Z,4.0070
2023-05-10T00:50:54.292Z,2.5860
2023-05-10T00:51:55.283Z,3.7451
2023-05-10T00:52:56.314Z,4.5184
2023-05-10T00:53:57.289Z,5.4210
2023-05-10T00:54:58.359Z,3.8023
2023-05-10T00:55:59.364Z,4.5757
2023-05-10T00:57:00.447Z,5.3982
2023-05-10T00:58:01.338Z,3.8740
2023-05-10T00:59:02.413Z,3.3294
2023-05-10T01:00:03.346Z,3.1738
2023-05-10T01:01:04.412Z,3.2173
2023-05-10T01:02:05.446Z,3.9000
2023-05-10T01:03:06.505Z,4.6731
2023-05-10T01:04:07.396Z,3.4458
2023-05-10T01:05:08.278Z,5.0042
2023-05-10T01:06:09.018Z,4.0979
2023-05-10T01:07:09.889Z,3.9916
2023-05-10T01:08:10.760Z,4.2564
2023-05-10T01:09:11.632Z,4.3110
2023-05-10T01:10:12.487Z,3.9844
2023-05-10T01:11:13.336Z,3.9758
2023-05-10T01:12:14.204Z,3.9461
2023-05-10T01:13:15.035Z,4.4797
2023-05-10T01:14:16.003Z,3.7822
2023-05-10T01:15:17.015Z,4.0384
2023-05-10T01:16:18.059Z,3.7297
2023-05-10T01:17:19.134Z,3.6365
2023-05-10T01:18:20.041Z,3.6132
2023-05-10T01:19:21.169Z,4.1616
2023-05-10T01:20:23.080Z,3.6563
2023-05-10T01:21:24.040Z,4.1533
2023-05-10T01:22:25.062Z,4.2070
2023-05-10T01:23:26.122Z,4.0404
2023-05-10T01:24:27.123Z,4.1610
2023-05-10T01:25:28.141Z,3.6938
2023-05-10T01:26:53.439Z,3.2665
2023-05-10T01:27:31.645Z,3.1235
2023-05-10T01:28:32.552Z,4.0397
2023-05-10T01:29:33.639Z,5.3044
2023-05-10T01:30:34.594Z,5.8350
2023-05-10T01:31:35.638Z,4.0667
2023-05-10T01:32:36.604Z,4.6688
2023-05-10T01:33:37.605Z,4.6298
2023-05-10T01:34:38.606Z,4.9269
2023-05-10T01:35:39.670Z,4.4941
2023-05-10T01:36:40.638Z,5.2087
2023-05-10T01:37:41.636Z,4.5977
2023-05-10T01:38:42.589Z,4.2257
2023-05-10T01:39:43.623Z,4.7530
2023-05-10T01:40:44.668Z,4.3446
2023-05-10T01:41:45.488Z,4.8943
2023-05-10T01:42:47.390Z,4.7421
2023-05-10T01:43:48.167Z,5.5163
2023-05-10T01:44:49.052Z,5.2546
2023-05-10T01:45:49.813Z,5.5593
2023-05-10T01:46:50.736Z,3.7266
2023-05-10T01:47:51.605Z,4.7185
2023-05-10T01:48:52.500Z,4.5496
2023-05-10T01:49:53.319Z,5.5851
2023-05-10T01:50:54.272Z,4.9128
2023-05-10T01:51:55.209Z,4.4730
2023-05-10T01:52:56.078Z,5.8350
2023-05-10T01:53:56.964Z,3.5917
2023-05-10T01:54:57.828Z,4.7723
2023-05-10T01:55:58.638Z,3.6722
2023-05-10T01:56:59.473Z,5.4350
2023-05-10T01:58:00.321Z,5.2381
2023-05-10T01:59:01.195Z,4.6918
2023-05-10T02:00:02.022Z,4.0061
2023-05-10T02:01:02.916Z,4.5997
2023-05-10T02:02:03.753Z,4.4430
2023-05-10T02:03:04.720Z,4.6157
2023-05-10T02:04:06.563Z,5.4595
2023-05-10T02:05:07.454Z,4.7105
2023-05-10T02:06:08.304Z,4.2965
2023-05-10T02:07:09.255Z,5.0001
2023-05-10T02:08:09.996Z,5.6191
2023-05-10T02:09:10.850Z,5.2158
2023-05-10T02:10:11.724Z,5.1460
2023-05-10T02:11:12.559Z,5.2518
2023-05-10T02:12:13.373Z,4.6976
2023-05-10T02:13:14.333Z,4.8841
2023-05-10T02:14:15.143Z,5.2661
2023-05-10T02:15:16.070Z,4.9753
2023-05-10T02:16:16.987Z,4.0748
2023-05-10T02:17:19.004Z,4.9945
2023-05-10T02:18:20.366Z,4.2920
2023-05-10T02:19:21.188Z,4.7341
2023-05-10T02:20:22.095Z,4.6783
2023-05-10T02:21:22.908Z,4.6817
2023-05-10T02:22:23.787Z,3.3607
2023-05-10T02:23:24.616Z,5.1412
2023-05-10T02:24:25.468Z,5.3812
2023-05-10T02:25:26.334Z,4.4583
2023-05-10T02:26:27.341Z,4.2459
2023-05-10T02:27:28.099Z,4.0198
2023-05-10T02:28:29.000Z,4.2779
2023-05-10T02:29:29.862Z,3.9595
2023-05-10T02:30:30.732Z,3.5822
2023-05-10T02:31:31.585Z,4.6079
2023-05-10T02:32:32.484Z,3.7615
2023-05-10T02:33:33.265Z,5.7287
2023-05-10T02:34:34.244Z,4.7891
2023-05-10T02:35:36.229Z,4.3093
2023-05-10T02:36:37.134Z,4.3756
2023-05-10T02:37:37.943Z,5.1701
2023-05-10T02:38:38.777Z,5.7154
2023-05-10T02:39:39.600Z,5.0598
2023-05-10T02:40:40.462Z,4.4983
2023-05-10T02:41:41.258Z,5.1838
2023-05-10T02:42:42.186Z,4.3623
2023-05-10T02:43:43.019Z,4.9443
2023-05-10T02:44:43.895Z,3.7657
2023-05-10T02:45:44.737Z,4.2152
2023-05-10T02:46:45.609Z,4.3341
2023-05-10T02:47:46.436Z,4.6227
2023-05-10T02:48:47.280Z,4.7319
2023-05-10T02:49:48.162Z,4.9054
2023-05-10T02:50:48.998Z,5.0352
2023-05-10T02:51:49.849Z,4.8901
2023-05-10T02:52:50.656Z,6.0501
2023-05-10T02:53:51.541Z,4.9586
2023-05-10T02:54:52.369Z,6.0070
2023-05-10T02:55:53.266Z,6.3696
2023-05-10T02:56:54.227Z,6.2489
2023-05-10T02:57:55.033Z,5.9121
2023-05-10T02:58:55.976Z,5.9326
2023-05-10T02:59:56.790Z,6.7296
2023-05-10T03:00:57.637Z,6.4044
2023-05-10T03:01:58.561Z,5.7816
2023-05-10T03:02:59.479Z,7.6294
2023-05-10T03:04:00.452Z,7.0027
2023-05-10T03:05:01.528Z,6.1873
2023-05-10T03:06:02.514Z,7.8328
2023-05-10T03:07:03.557Z,8.2345
2023-05-10T03:08:04.598Z,6.8631
2023-05-10T03:09:05.666Z,6.7476
2023-05-10T03:10:06.699Z,6.2583
2023-05-10T03:11:07.762Z,7.5470
2023-05-10T03:12:08.696Z,6.8239
2023-05-10T03:13:09.738Z,7.7038
2023-05-10T03:14:11.651Z,6.0571
2023-05-10T03:15:12.691Z,5.4852
2023-05-10T03:16:13.819Z,6.1639
2023-05-10T03:17:14.870Z,5.8536
2023-05-10T03:18:15.947Z,5.3798
2023-05-10T03:19:16.944Z,6.2335
2023-05-10T03:20:18.217Z,7.7915
2023-05-10T03:21:19.367Z,6.6226
2023-05-10T03:22:20.480Z,6.8098
2023-05-10T03:23:21.463Z,6.3467
2023-05-10T03:24:22.356Z,7.4157
2023-05-10T03:25:23.452Z,7.6531
2023-05-10T03:26:24.283Z,9.5170
2023-05-10T03:27:25.046Z,7.9315
2023-05-10T03:28:26.405Z,7.8518
2023-05-10T03:29:27.289Z,7.6021
2023-05-10T03:30:28.244Z,7.9487
2023-05-10T03:31:29.146Z,8.9730
2023-05-10T03:32:30.003Z,8.6502
2023-05-10T03:33:30.844Z,9.2278
2023-05-10T03:34:31.704Z,9.5690
2023-05-10T03:35:32.500Z,9.0470
2023-05-10T03:36:33.421Z,9.7256
2023-05-10T03:37:34.474Z,7.7670
2023-05-10T03:38:35.352Z,7.9441
2023-05-10T03:39:36.164Z,8.1806
2023-05-10T03:40:37.033Z,8.3493
2023-05-10T03:41:37.877Z,8.2721
2023-05-10T03:42:38.738Z,9.2046
2023-05-10T03:43:39.517Z,8.8140
2023-05-10T03:44:40.383Z,8.2108
2023-05-10T03:45:41.204Z,9.2601
2023-05-10T03:46:42.157Z,10.2026
2023-05-10T03:47:42.977Z,9.8664
2023-05-10T03:48:43.790Z,8.3825
2023-05-10T03:49:44.585Z,9.1177
2023-05-10T03:50:45.586Z,9.4829
2023-05-10T03:51:46.520Z,10.3848
2023-05-10T03:52:47.492Z,9.2024
2023-05-10T03:53:48.431Z,11.1811
2023-05-10T03:54:49.437Z,10.7561
2023-05-10T03:55:50.480Z,10.8015
2023-05-10T03:56:51.565Z,10.8745
2023-05-10T03:57:52.483Z,9.8244
2023-05-10T03:58:53.459Z,10.3568
2023-05-10T03:59:54.498Z,10.8246
2023-05-10T04:00:55.495Z,9.5768
2023-05-10T04:01:56.462Z,10.6383
2023-05-10T04:02:57.579Z,12.7304
2023-05-10T04:03:58.589Z,10.1481
2023-05-10T04:04:59.640Z,10.8788
2023-05-10T04:06:00.585Z,10.8767
2023-05-10T04:07:01.635Z,11.2672
2023-05-10T04:08:02.575Z,11.2000
2023-05-10T04:09:03.631Z,10.9574
2023-05-10T04:10:04.534Z,9.7850
2023-05-10T04:11:05.479Z,11.7977
2023-05-10T04:12:07.961Z,12.4737
2023-05-10T04:13:07.761Z,11.2710
2023-05-10T04:14:08.664Z,10.9864
2023-05-10T04:15:09.506Z,10.3711
2023-05-10T04:16:10.285Z,12.0106
2023-05-10T04:17:11.330Z,11.5667
2023-05-10T04:18:12.441Z,10.6881
2023-05-10T04:19:13.401Z,9.1066
2023-05-10T04:20:14.501Z,12.2083
2023-05-10T04:21:15.565Z,10.6189
2023-05-10T04:22:16.566Z,9.5555
2023-05-10T04:23:17.780Z,9.5521
2023-05-10T04:24:18.834Z,8.9761
2023-05-10T04:25:19.878Z,10.9009
2023-05-10T04:26:20.915Z,9.3022
2023-05-10T04:27:21.865Z,9.9633
2023-05-10T04:28:22.913Z,9.3737
2023-05-10T04:29:23.964Z,8.0131
2023-05-10T04:30:24.897Z,8.5797
2023-05-10T04:31:26.019Z,10.2079
2023-05-10T04:32:27.112Z,8.1806
2023-05-10T04:33:28.137Z,7.9771
2023-05-10T04:34:29.149Z,10.0725
2023-05-10T04:35:30.169Z,10.2966
2023-05-10T04:36:31.153Z,10.7911
2023-05-10T04:37:32.213Z,7.4207
2023-05-10T04:38:33.044Z,8.3647
2023-05-10T04:39:33.947Z,9.7141
2023-05-10T04:40:34.854Z,9.2668
2023-05-10T04:41:35.857Z,9.1254
2023-05-10T04:42:36.895Z,9.2488
2023-05-10T04:43:37.875Z,9.6877
2023-05-10T04:44:38.974Z,10.2552
2023-05-10T04:45:39.928Z,9.1070
2023-05-10T04:46:41.114Z,7.4166
2023-05-10T04:47:42.156Z,7.6947
2023-05-10T04:48:43.222Z,8.7037
2023-05-10T04:49:44.309Z,9.1843
2023-05-10T04:50:46.422Z,10.1125
2023-05-10T04:51:47.428Z,8.1499
2023-05-10T04:52:48.476Z,8.5545
2023-05-10T04:54:01.721Z,10.2682
2023-05-10T04:54:49.912Z,8.7034
2023-05-10T04:55:50.924Z,8.9686
2023-05-10T04:56:51.998Z,9.8880
2023-05-10T04:57:52.993Z,9.8005
2023-05-10T04:58:54.052Z,10.4820
2023-05-10T04:59:55.082Z,9.5812
2023-05-10T05:00:56.162Z,8.4303
2023-05-10T05:01:57.274Z,8.5677
2023-05-10T05:02:58.531Z,9.1764
2023-05-10T05:03:59.790Z,7.4485
2023-05-10T05:05:01.934Z,8.7692
2023-05-10T05:06:02.801Z,8.0030
2023-05-10T05:07:03.746Z,8.5282
2023-05-10T05:08:04.644Z,7.7599
2023-05-10T05:09:05.571Z,8.9802
2023-05-10T05:10:06.391Z,8.3517
2023-05-10T05:11:07.445Z,8.5532
2023-05-10T05:12:08.178Z,10.9653
2023-05-10T05:13:09.233Z,9.5364
2023-05-10T05:14:10.220Z,9.3244
2023-05-10T05:15:11.127Z,8.5497
2023-05-10T05:16:12.187Z,7.9777
2023-05-10T05:17:14.030Z,8.5329
2023-05-10T05:18:14.954Z,9.8428
2023-05-10T05:19:15.763Z,10.4663
2023-05-10T05:20:16.976Z,10.0711
2023-05-10T05:21:18.144Z,7.6592
2023-05-10T05:22:19.596Z,8.6922
2023-05-10T05:23:20.656Z,7.9971
2023-05-10T05:24:21.696Z,8.3427
2023-05-10T05:25:22.495Z,8.9082
2023-05-10T05:26:23.477Z,8.7944
2023-05-10T05:27:24.312Z,10.4142
2023-05-10T05:28:25.260Z,9.7720
2023-05-10T05:29:26.079Z,9.6296
2023-05-10T05:30:26.981Z,9.7452
2023-05-10T05:31:27.986Z,8.8028
2023-05-10T05:32:29.083Z,8.8112
2023-05-10T05:33:30.092Z,10.1787
2023-05-10T05:34:31.253Z,8.6995
2023-05-10T05:35:32.260Z,7.6436
2023-05-10T05:45:32.891Z,6.8214
2023-05-10T05:45:32.891Z,8.5029
2023-05-10T05:45:32.891Z,8.2569
2023-05-10T05:46:35.085Z,10.0709
2023-05-10T05:47:36.301Z,7.3673
2023-05-10T05:48:37.305Z,8.1358
2023-05-10T05:49:38.389Z,10.2937
2023-05-10T05:50:39.409Z,10.9592
2023-05-10T05:51:40.413Z,10.4844
2023-05-10T05:52:41.512Z,8.8831
2023-05-10T05:53:42.576Z,8.5532
2023-05-10T05:54:43.649Z,9.0561
2023-05-10T05:55:44.725Z,9.0401
2023-05-10T05:56:45.773Z,9.1178
2023-05-10T06:02:20.821Z,7.3581
2023-05-10T06:02:20.821Z,8.8356
2023-05-10T06:03:39.597Z,10.8540
2023-05-10T06:04:42.795Z,9.3094
2023-05-10T06:05:30.355Z,9.2980
2023-05-10T06:06:31.301Z,9.0915
2023-05-10T06:07:32.293Z,8.7275
2023-05-10T06:10:18.265Z,10.2540
2023-05-10T06:11:22.221Z,9.2900
2023-05-10T06:12:21.083Z,8.2770
2023-05-10T06:13:21.997Z,9.7193
2023-05-10T06:14:22.900Z,10.9471
2023-05-10T06:16:25.552Z,10.2915
2023-05-10T06:17:26.591Z,9.9777
2023-05-10T06:19:52.319Z,9.3755
2023-05-10T06:20:30.614Z,7.8004
2023-05-10T06:21:31.493Z,7.9530
2023-05-10T06:22:32.470Z,8.5730
2023-05-10T06:23:33.260Z,10.6113
2023-05-10T06:24:34.200Z,9.2015
2023-05-10T06:25:35.074Z,9.2821
2023-05-10T06:26:35.919Z,8.6604
2023-05-10T06:27:36.775Z,10.3500
2023-05-10T06:28:37.661Z,9.1095
2023-05-10T06:29:38.544Z,9.8190
2023-05-10T06:30:39.431Z,9.1550
2023-05-10T06:31:40.364Z,9.1409
2023-05-10T06:32:41.177Z,9.8870
2023-05-10T06:33:42.120Z,8.7529
2023-05-10T06:34:42.932Z,8.1245
2023-05-10T06:35:43.885Z,8.8084
2023-05-10T06:36:44.744Z,7.7843
2023-05-10T06:37:45.544Z,8.5760
2023-05-10T06:38:46.463Z,10.0111
2023-05-10T06:39:47.312Z,11.1384
2023-05-10T06:40:48.340Z,9.2480
2023-05-10T06:41:49.529Z,10.0387
2023-05-10T06:42:50.523Z,9.0027
2023-05-10T06:43:51.513Z,11.3437
2023-05-10T06:44:52.614Z,8.5110
2023-05-10T06:45:53.718Z,8.8556
2023-05-10T06:46:54.766Z,8.6511
2023-05-10T06:47:55.859Z,8.8887
2023-05-10T06:48:57.284Z,7.9351
2023-05-10T06:50:00.325Z,8.9284
2023-05-10T06:51:02.908Z,10.9863
2023-05-10T06:52:04.001Z,9.9558
2023-05-10T06:53:05.038Z,9.4944
2023-05-10T06:54:06.044Z,8.5732
2023-05-10T06:55:06.995Z,9.2506
2023-05-10T06:56:07.954Z,10.2089
2023-05-10T06:57:16.004Z,10.4684
2023-05-10T07:00:12.805Z,8.0704
2023-05-10T07:01:13.927Z,8.4307
2023-05-10T07:02:15.410Z,8.1908
2023-05-10T07:03:17.296Z,7.3178
2023-05-10T07:04:18.543Z,7.0703
2023-05-10T07:05:21.233Z,7.9296
2023-05-10T07:06:32.914Z,7.7698
2023-05-10T07:07:23.239Z,7.3008
2023-05-10T07:08:24.486Z,7.5978
2023-05-10T07:09:25.642Z,7.8546
2023-05-10T07:10:26.722Z,8.5705
2023-05-10T07:11:27.941Z,8.1414
2023-05-10T07:12:29.074Z,7.0098
2023-05-10T07:13:30.206Z,8.5361
2023-05-10T07:14:31.361Z,8.6822
2023-05-10T07:15:32.826Z,7.9454
2023-05-10T07:16:34.044Z,10.4922
2023-05-10T07:17:35.110Z,8.5185
2023-05-10T07:18:36.360Z,9.5984
2023-05-10T07:19:37.471Z,8.0890
2023-05-10T07:20:38.581Z,13.3008
2023-05-10T07:21:39.754Z,10.1195
2023-05-10T07:22:40.850Z,9.9576
2023-05-10T07:23:43.681Z,8.6617
2023-05-10T07:24:42.763Z,7.3354
2023-05-10T07:25:43.810Z,8.8676
2023-05-10T07:27:08.189Z,8.8213
2023-05-10T07:27:46.862Z,7.8824
2023-05-10T07:28:47.884Z,8.2948
2023-05-10T07:29:48.949Z,8.1994
2023-05-10T07:30:49.965Z,10.0632
2023-05-10T07:32:00.238Z,11.3880
2023-05-10T07:33:52.236Z,8.8246
2023-05-10T07:34:02.659Z,8.2252
2023-05-10T07:37:16.308Z,9.2639
2023-05-10T07:37:16.308Z,8.8446
2023-05-10T07:40:50.725Z,9.0269
2023-05-10T07:40:50.725Z,9.9326
2023-05-10T07:40:50.725Z,11.8556
2023-05-10T07:41:51.659Z,9.5573
2023-05-10T07:43:57.030Z,12.1488
2023-05-10T07:47:01.213Z,10.7802
2023-05-10T07:47:01.213Z,10.7869
2023-05-10T07:48:03.179Z,9.9606
2023-05-10T07:49:04.365Z,10.7907
2023-05-10T07:50:05.258Z,11.0491
2023-05-10T07:52:27.111Z,9.5194
2023-05-10T07:52:27.111Z,9.7869
2023-05-10T07:53:15.597Z,9.8216
2023-05-10T07:54:16.748Z,10.6025
2023-05-10T07:55:17.906Z,10.9516
2023-05-10T07:56:19.890Z,12.0181
2023-05-10T07:57:21.059Z,11.8924
2023-05-10T07:58:23.472Z,10.2253
2023-05-10T07:59:25.484Z,10.8612
2023-05-10T08:00:26.598Z,10.7923
2023-05-10T08:01:27.777Z,10.7290
2023-05-10T08:02:28.880Z,9.0992
2023-05-10T08:03:31.011Z,9.1216
2023-05-10T08:04:32.179Z,9.9132
2023-05-10T08:05:35.236Z,10.6037
2023-05-10T08:06:33.603Z,11.4333
2023-05-10T08:07:34.720Z,9.2926
2023-05-10T08:08:35.769Z,9.4656
2023-05-10T08:09:36.833Z,8.2655
2023-05-10T08:10:38.020Z,10.8478
2023-05-10T08:11:39.327Z,10.3575
2023-05-10T08:12:40.280Z,10.1286
2023-05-10T08:13:41.339Z,11.5240
2023-05-10T08:14:42.409Z,10.8962
2023-05-10T08:15:43.489Z,11.8362
2023-05-10T08:27:01.758Z,10.0309
2023-05-10T08:27:01.758Z,10.3053
2023-05-10T08:27:01.758Z,9.9637
2023-05-10T08:28:02.720Z,11.6357
2023-05-10T08:29:03.908Z,13.1170
2023-05-10T08:30:04.940Z,11.6587
2023-05-10T08:31:06.228Z,9.0986
2023-05-10T08:32:07.364Z,10.8225
2023-05-10T08:33:08.940Z,10.8418
2023-05-10T08:35:27.660Z,9.8843
2023-05-10T08:35:27.660Z,10.1035
2023-05-10T08:36:28.627Z,10.1588
2023-05-10T08:37:29.709Z,10.1806
2023-05-10T08:38:30.801Z,9.6973
2023-05-10T08:41:32.471Z,10.4119
2023-05-10T08:42:31.150Z,10.3660
2023-05-10T08:43:30.726Z,10.0765
2023-05-10T08:44:32.350Z,11.0491
2023-05-10T08:45:33.541Z,11.7151
2023-05-10T08:48:40.610Z,10.0529
2023-05-10T08:48:40.610Z,10.4372
2023-05-10T08:50:50.739Z,11.6630
2023-05-10T08:50:50.739Z,9.2266
2023-05-10T08:51:52.907Z,12.2760
2023-05-10T08:52:53.858Z,11.3756
2023-05-10T08:53:54.858Z,10.5894
2023-05-10T08:54:55.938Z,10.3356
2023-05-10T08:55:57.854Z,10.7997
2023-05-10T08:56:58.987Z,11.8889
2023-05-10T08:58:00.205Z,11.4445
2023-05-10T08:59:01.087Z,10.0700
2023-05-10T09:00:02.182Z,11.1231
2023-05-10T09:01:03.338Z,10.0753
2023-05-10T09:02:04.384Z,9.9036
2023-05-10T09:03:07.985Z,11.8257
2023-05-10T09:04:07.714Z,13.1335
2023-05-10T09:05:09.448Z,11.6618
2023-05-10T09:06:12.452Z,11.0164
2023-05-10T09:07:15.114Z,11.3008
2023-05-10T09:08:15.505Z,12.9252
2023-05-10T09:11:34.134Z,12.0143
2023-05-10T09:15:28.050Z,9.6109
2023-05-10T09:15:28.050Z,11.8992
2023-05-10T09:16:56.696Z,13.3352
2023-05-10T09:17:16.420Z,14.5834
2023-05-10T09:19:27.789Z,13.5863
2023-05-10T09:20:24.148Z,13.5432
2023-05-10T09:23:51.891Z,12.3100
2023-05-10T09:23:51.891Z,13.2116
2023-05-10T09:26:07.268Z,11.7790
2023-05-10T09:29:12.494Z,11.9189
2023-05-10T09:29:12.494Z,13.0365
2023-05-10T09:33:05.495Z,12.6519
2023-05-10T09:33:05.495Z,11.2018
2023-05-10T09:33:05.495Z,11.6240
2023-05-10T09:34:05.697Z,12.2328
2023-05-10T09:35:07.270Z,13.5449
2023-05-10T09:36:08.224Z,13.3988
2023-05-10T09:37:09.671Z,10.9204
2023-05-10T09:38:10.886Z,12.6350
2023-05-10T09:44:56.918Z,11.2645
2023-05-10T09:44:56.918Z,12.6583
2023-05-10T09:44:56.918Z,11.4070
2023-05-10T09:46:04.206Z,11.2709
2023-05-10T09:49:21.156Z,11.7614
2023-05-10T09:49:21.156Z,12.7235
2023-05-10T09:51:47.164Z,12.4464
2023-05-10T09:56:57.421Z,12.9132
2023-05-10T09:58:10.342Z,11.1157
2023-05-10T09:59:12.307Z,11.7416
2023-05-10T10:03:24.983Z,11.0858
2023-05-10T10:03:24.983Z,13.0352
2023-05-10T10:06:18.916Z,10.8180
2023-05-10T10:07:09.099Z,10.6552
2023-05-10T10:08:25.218Z,9.7077
2023-05-10T10:09:19.621Z,11.0487
2023-05-10T10:10:17.921Z,9.9725
2023-05-10T10:11:15.145Z,11.4478
2023-05-10T10:12:26.624Z,12.4898
2023-05-10T10:15:47.272Z,9.5521
2023-05-10T10:15:47.272Z,10.2326
2023-05-10T10:15:47.272Z,10.6359
2023-05-10T10:16:59.905Z,10.2627
2023-05-10T10:17:48.630Z,9.5147
2023-05-10T10:18:49.639Z,11.4020
2023-05-10T10:20:12.894Z,10.1241
2023-05-10T10:20:54.390Z,10.9557
2023-05-10T10:21:55.408Z,10.0509
2023-05-10T10:23:57.954Z,10.3786
2023-05-10T10:24:58.947Z,9.5924
2023-05-10T10:25:59.859Z,10.7935
2023-05-10T10:27:00.817Z,12.0929
2023-05-10T10:28:01.837Z,11.2757
2023-05-10T10:29:02.997Z,9.9759
2023-05-10T10:30:04.128Z,9.6749
2023-05-10T10:31:05.101Z,10.4207
2023-05-10T10:32:06.063Z,11.0536
2023-05-10T10:33:16.616Z,11.3623
2023-05-10T10:34:07.524Z,10.7239
2023-05-10T10:35:09.550Z,9.7759
2023-05-10T10:36:10.650Z,10.3180
2023-05-10T10:37:11.668Z,8.3177
2023-05-10T10:38:12.671Z,11.4580
2023-05-10T10:39:13.813Z,11.6117
2023-05-10T10:40:15.224Z,10.6919
2023-05-10T10:41:20.011Z,9.7158
2023-05-10T10:42:17.939Z,12.0508
2023-05-10T10:43:18.963Z,9.6727
2023-05-10T10:45:21.742Z,10.5803
2023-05-10T10:46:22.831Z,10.0671
2023-05-10T10:47:23.953Z,10.0323
2023-05-10T10:48:25.021Z,10.3509
2023-05-10T10:49:26.068Z,10.2908
2023-05-10T10:50:36.643Z,11.0138
2023-05-10T10:51:35.676Z,10.7078
2023-05-10T10:52:38.247Z,8.6924
2023-05-10T10:53:40.776Z,8.1213
2023-05-10T10:54:42.759Z,9.2508
2023-05-10T10:55:46.795Z,8.6094
2023-05-10T10:56:45.269Z,8.4968
2023-05-10T10:57:39.875Z,9.0962
2023-05-10T10:58:40.892Z,9.9425
2023-05-10T10:59:42.024Z,9.7012
2023-05-10T11:00:43.104Z,9.8185
2023-05-10T11:01:44.520Z,9.5847
2023-05-10T11:02:45.653Z,8.3481
2023-05-10T11:03:54.993Z,7.5822
2023-05-10T11:04:49.770Z,8.4296
2023-05-10T11:05:50.947Z,9.3869
2023-05-10T11:06:52.013Z,10.1312
2023-05-10T11:07:53.138Z,9.1797
2023-05-10T11:08:54.266Z,10.4377
2023-05-10T11:10:03.460Z,9.7061
2023-05-10T11:10:58.025Z,8.2296
2023-05-10T11:11:59.126Z,8.8639
2023-05-10T11:13:07.450Z,8.6429
2023-05-10T11:14:02.139Z,8.4790
2023-05-10T11:15:03.149Z,8.1272
2023-05-10T11:16:04.364Z,9.9379
2023-05-10T11:17:06.537Z,8.0966
2023-05-10T11:18:15.984Z,10.3831
2023-05-10T11:19:10.804Z,8.2855
2023-05-10T11:20:20.968Z,9.4388
2023-05-10T11:21:23.489Z,9.3731
2023-05-10T11:22:25.952Z,9.6147
2023-05-10T11:23:29.026Z,8.4669
2023-05-10T11:24:31.512Z,8.6292
2023-05-10T11:25:34.015Z,9.6409
2023-05-10T11:26:36.677Z,8.5467
2023-05-10T11:27:39.047Z,10.2518
2023-05-10T11:28:31.433Z,9.9765
2023-05-10T11:29:33.452Z,14.1023
2023-05-10T11:30:42.100Z,12.4387
2023-05-10T11:31:44.623Z,8.9597
2023-05-10T11:32:36.913Z,9.7592
2023-05-10T11:33:46.585Z,9.1659
2023-05-10T11:34:39.084Z,10.3395
2023-05-10T11:35:49.511Z,8.8769
2023-05-10T11:36:50.067Z,10.4159
2023-05-10T11:37:49.810Z,9.5141
2023-05-10T11:38:44.487Z,9.8514
2023-05-10T11:39:45.488Z,9.0482
2023-05-10T11:40:55.607Z,8.7558
2023-05-10T11:42:21.138Z,11.0390
2023-05-10T11:42:49.728Z,8.4618
2023-05-10T11:43:50.858Z,7.3371
2023-05-10T11:44:52.090Z,7.9924
2023-05-10T11:45:53.092Z,8.8665
2023-05-10T11:47:03.620Z,8.7359
2023-05-10T11:48:03.815Z,9.4133
2023-05-10T11:49:04.176Z,6.9147
2023-05-10T11:50:06.757Z,7.4183
2023-05-10T11:51:09.245Z,7.3201
2023-05-10T11:52:03.907Z,9.8737
2023-05-10T11:53:04.923Z,10.5401
2023-05-10T11:54:06.016Z,10.2269
2023-05-10T11:55:07.066Z,8.3306
2023-05-10T11:56:08.152Z,8.1334
2023-05-10T11:57:18.727Z,9.2278
2023-05-10T11:58:17.793Z,7.4496
2023-05-10T11:59:12.628Z,7.4923
2023-05-10T12:00:14.450Z,7.5462
2023-05-10T12:01:15.413Z,6.3539
2023-05-10T12:02:26.730Z,6.6637
2023-05-10T12:03:19.313Z,6.9844
2023-05-10T12:04:21.569Z,7.9067
2023-05-10T12:05:22.712Z,10.8105
2023-05-10T12:06:24.912Z,7.0749
2023-05-10T12:07:35.320Z,7.6150
2023-05-10T12:08:26.706Z,7.9329
2023-05-10T12:09:42.573Z,8.3202
2023-05-10T12:10:28.400Z,9.2783
2023-05-10T12:11:29.736Z,7.3870
2023-05-10T12:12:30.918Z,6.3582
2023-05-10T12:13:31.993Z,6.3104
2023-05-10T12:14:33.095Z,8.1348
2023-05-10T12:15:34.155Z,8.7316
2023-05-10T12:16:35.285Z,8.6709
2023-05-10T12:17:36.366Z,7.0999
2023-05-10T12:18:37.422Z,9.6184
2023-05-10T12:19:38.469Z,7.4905
2023-05-10T12:20:39.508Z,10.9300
2023-05-10T12:21:40.596Z,10.9748
2023-05-10T12:22:41.756Z,6.9897
2023-05-10T12:23:42.828Z,9.0765
2023-05-10T12:24:43.958Z,9.2655
2023-05-10T12:25:44.981Z,8.6771
2023-05-10T12:26:46.115Z,7.8972
2023-05-10T12:27:47.137Z,7.8011
2023-05-10T12:28:48.169Z,8.2723
2023-05-10T12:29:49.302Z,11.4286
2023-05-10T12:30:50.331Z,10.5816
2023-05-10T12:31:51.424Z,11.0292
2023-05-10T12:32:52.538Z,11.5825
2023-05-10T12:33:53.540Z,11.2937
2023-05-10T12:34:54.534Z,9.1313
2023-05-10T12:35:55.588Z,9.5895
2023-05-10T12:36:56.679Z,8.1896
2023-05-10T12:37:57.721Z,10.1972
2023-05-10T12:38:58.802Z,11.1645
2023-05-10T12:39:59.888Z,7.2314
2023-05-10T12:41:01.022Z,7.6302
2023-05-10T12:42:04.046Z,7.2052
2023-05-10T12:43:05.212Z,8.0608
2023-05-10T12:44:06.245Z,10.4335
2023-05-10T12:45:07.258Z,10.1031
2023-05-10T12:46:08.377Z,9.7089
2023-05-10T12:47:09.478Z,11.2464
2023-05-10T12:48:10.550Z,18.7288
2023-05-10T12:49:11.567Z,28.2130
2023-05-10T12:50:12.655Z,13.4484
2023-05-10T12:51:13.768Z,9.2442
2023-05-10T12:52:24.245Z,6.9376
2023-05-10T12:53:18.967Z,10.1806
2023-05-10T12:54:20.292Z,8.8737
2023-05-10T12:55:21.449Z,10.6450
2023-05-10T12:56:22.533Z,8.2188
2023-05-10T12:57:23.593Z,10.1471
2023-05-10T12:58:34.922Z,9.1884
2023-05-10T12:59:25.139Z,11.7103
2023-05-10T13:00:26.073Z,11.5177
2023-05-10T13:01:27.218Z,8.8702
2023-05-10T13:02:28.262Z,9.4860
2023-05-10T13:03:29.496Z,10.8205
2023-05-10T13:04:30.677Z,9.9993
2023-05-10T13:05:31.801Z,7.2778
2023-05-10T13:06:32.880Z,7.8329
2023-05-10T13:07:34.048Z,11.4478
2023-05-10T13:08:35.062Z,10.7714
2023-05-10T13:09:36.127Z,10.7967
2023-05-10T13:10:37.217Z,8.1341
2023-05-10T13:11:38.426Z,8.9017
2023-05-10T13:12:39.602Z,7.5052
2023-05-10T13:13:40.770Z,8.2062
2023-05-10T13:14:41.760Z,10.3499
2023-05-10T13:15:42.900Z,8.4216
2023-05-10T13:16:43.886Z,8.1983
2023-05-10T13:17:44.936Z,12.8224
2023-05-10T13:18:45.983Z,13.7683
2023-05-10T13:19:47.045Z,13.3425
2023-05-10T13:20:48.236Z,7.3901
2023-05-10T13:21:49.295Z,8.1133
2023-05-10T13:22:51.144Z,7.2508
2023-05-10T13:23:53.121Z,6.6617
2023-05-10T13:25:56.940Z,7.3131
2023-05-10T13:26:58.194Z,8.0442
2023-05-10T13:27:59.331Z,8.2263
2023-05-10T13:29:00.675Z,8.3269
2023-05-10T13:30:01.965Z,8.6754
2023-05-10T13:31:03.053Z,9.2455
2023-05-10T13:32:04.266Z,8.3327
2023-05-10T13:34:07.373Z,9.2523
2023-05-10T13:35:08.859Z,8.9968
2023-05-10T13:36:09.957Z,8.2436